Burnwell, Alabama
Current Conditions -  °F | °C
As of 12:35 PM on Thursday 29 Jan 2015 (Local Time) from KJFX Reporting Station
Clear Clear  
Wind Chill: 63°   Ceiling: Unl
Heat Index: 63°   Visibility: 10mi
Dew Point: 45°   Wind: 7mph
Humidity: 52%   Direction: 220°SW
Pressure: 30.12"   Gusts: NA
Location:  33.71°N, 87.09°W
Report Text: KJFX 291835Z AUTO 22006KT 10SM CLR 17/07 A3012 RMK A02 P-128
Loading
Personal Weather Stations






























Interactive Weather Map New forecast layout! Learn more

10-Day Weather Forecast

Advertisements
Track Severe Weather on mobile